createdAt,value
2024-01-03T00:10:27.178Z,3.49
2024-01-03T00:40:30.664Z,3.61
2024-01-03T01:10:33.943Z,3.84
2024-01-03T01:40:36.907Z,4.01
2024-01-03T02:10:40.330Z,4.20
2024-01-03T02:40:44.078Z,4.37
2024-01-03T03:10:47.024Z,4.56
2024-01-03T03:40:50.405Z,4.78
2024-01-03T04:10:53.361Z,5.04
2024-01-03T04:40:56.851Z,5.34
2024-01-03T05:10:59.884Z,5.54
2024-01-03T05:41:05.182Z,5.58
2024-01-03T06:11:09.786Z,6.15
2024-01-03T06:41:12.678Z,6.53
2024-01-03T07:11:16.346Z,6.59
2024-01-03T07:41:19.876Z,6.75
2024-01-03T08:11:23.232Z,7.00
2024-01-03T08:41:26.232Z,7.28
2024-01-03T09:11:30.430Z,7.50
2024-01-03T09:41:33.383Z,7.66
2024-01-03T10:11:36.765Z,7.40
2024-01-03T10:41:39.758Z,7.69
2024-01-03T11:11:44.184Z,8.30
2024-01-03T11:41:47.113Z,8.57
2024-01-03T12:11:51.112Z,8.82
2024-01-03T12:41:54.130Z,9.03
2024-01-03T13:11:57.948Z,9.15
2024-01-03T13:42:01.819Z,9.08
2024-01-03T14:12:04.903Z,9.02
2024-01-03T14:42:08.105Z,8.80
2024-01-03T15:12:11.432Z,8.13
2024-01-03T15:42:14.446Z,8.05
2024-01-03T16:12:18.685Z,7.75
2024-01-03T16:42:22.193Z,7.46
2024-01-03T17:12:25.227Z,7.19
2024-01-03T17:42:28.570Z,7.10
2024-01-03T18:12:32.024Z,7.07
2024-01-03T18:42:35.900Z,7.01
2024-01-03T19:12:38.931Z,6.95
2024-01-03T19:42:42.371Z,6.87
2024-01-03T20:12:45.651Z,6.81
2024-01-03T20:42:49.414Z,6.73
2024-01-03T21:12:52.429Z,6.64
2024-01-03T21:42:56.327Z,6.58
2024-01-03T22:12:59.455Z,6.52
2024-01-03T22:43:03.348Z,6.29
2024-01-03T23:13:09.629Z,6.07
2024-01-03T23:43:13.136Z,6.04
